Norbank — PGIS — position and weather

sailwx.info

Track history (hours):
 
Tides and Currents Weather Stations Pressure Air Temp Water Temp Dewpoint Dewpoint Depression Visibility Wind Speed Wind Dir Waves Ship Positions

Norbank

Operator: P & O Ferries

Last reported at 2014-Aug-29 23:05 UTC. Time now 2014-Aug-30 12:34 UTC.
Position N 53°33' W 003°60'.

Length 167 m; draft 5.8 m.

Type: Ship (hazmat cat A). MMSI: 246213000.

Date/timePositionNaut miles runAvg speedWind from/ knotsBaromVisibWave heightAir tempDewpointWater temp
2014-Aug-29 23:05N 53°33' W 003°60'916.9
2014-Aug-29 22:33N 53°33' W 003°45'1716.9
2014-Aug-29 21:33N 53°32' W 003°17'10 1.9
2014-Aug-29 16:18N 53°27' W 003°01'8 4.4
2014-Aug-29 14:33N 53°31' W 003°12'1818.0
2014-Aug-29 13:33N 53°31' W 003°43'1716.8
2014-Aug-29 12:33N 53°35' W 004°10'6 0.5
2014-Aug-28 23:08N 53°34' W 003°60'1017.2
2014-Aug-28 22:33N 53°33' W 003°43'1717.2
2014-Aug-28 21:33N 53°31' W 003°14'9 5.9
2014-Aug-28 20:04N 53°27' W 003°01'0 0.0
2014-Aug-28 19:31N 53°27' W 003°01'8 1.6
2014-Aug-28 14:33N 53°31' W 003°12'1616.5
2014-Aug-28 13:34N 53°31' W 003°40'1616.3
2014-Aug-28 12:34N 53°34' W 004°07'4 0.3
2014-Aug-27 23:29N 53°34' W 004°01'1718.2
2014-Aug-27 22:33N 53°33' W 003°33'12 1.5
2014-Aug-27 14:33N 53°31' W 003°13'1717.4
2014-Aug-27 13:33N 53°32' W 003°43'1817.9
2014-Aug-27 12:33N 53°35' W 004°12'16 1.1
2014-Aug-26 22:33N 53°33' W 003°46'1818.0
2014-Aug-26 21:33N 53°32' W 003°16'10 1.5
2014-Aug-26 15:10N 53°27' W 003°01'712.2
2014-Aug-26 14:34N 53°32' W 003°11'1817.6
2014-Aug-26 13:33N 53°31' W 003°40'1818.5
2014-Aug-26 12:34N 53°35' W 004°11'11 0.8
2014-Aug-25 22:32N 53°33' W 003°53'1515.7
2014-Aug-25 21:33N 53°33' W 003°27'1715.2
2014-Aug-25 20:27N 53°27' W 003°01'1 0.6
2014-Aug-25 19:24N 53°27' W 003°01'0 0.0
2014-Aug-25 18:29N 53°27' W 003°01'0 0.0
2014-Aug-25 17:05N 53°27' W 003°01'0 0.0
2014-Aug-25 16:28N 53°27' W 003°01'0 0.0
2014-Aug-25 14:22N 53°27' W 003°01'0 0.0
2014-Aug-25 13:09N 53°27' W 003°01'0 0.0
2014-Aug-25 12:27N 53°27' W 003°01'0 0.0
2014-Aug-25 11:14N 53°27' W 003°01'0 0.0
2014-Aug-25 10:32N 53°27' W 003°01'0 0.0
2014-Aug-25 07:31N 53°27' W 003°01'0 0.0
2014-Aug-25 06:30N 53°27' W 003°01'2 0.8
2014-Aug-25 04:30N 53°28' W 003°03'1112.1
2014-Aug-25 03:33N 53°31' W 003°22'1514.8
2014-Aug-25 02:33N 53°32' W 003°47'4 0.2
2014-Aug-23 23:33N 53°33' W 003°54'1716.8
2014-Aug-23 22:33N 53°32' W 003°26'1513.7
2014-Aug-23 21:27N 53°27' W 003°02'31 1.4
2014-Aug-22 23:31N 53°34' W 003°53'1919.6
2014-Aug-22 22:34N 53°32' W 003°21'8 1.0
2014-Aug-22 14:28N 53°31' W 003°07'1617.1
2014-Aug-22 13:33N 53°31' W 003°33'1818.1
2014-Aug-22 12:33N 53°34' W 004°03'10 0.7
2014-Aug-21 22:33N 53°33' W 003°47'1616.1
2014-Aug-21 21:33N 53°32' W 003°20'8 1.1
2014-Aug-21 14:27N 53°31' W 003°07'1415.8
2014-Aug-21 13:34N 53°31' W 003°31'1615.9
2014-Aug-21 12:34N 53°34' W 003°57'10 0.7
2014-Aug-20 22:33N 53°33' W 003°41'1919.0
2014-Aug-20 21:33N 53°32' W 003°09'6 5.1
2014-Aug-20 20:17N 53°27' W 003°01'0 0.1
2014-Aug-20 18:26N 53°27' W 003°01'7 1.9
2014-Aug-20 14:33N 53°32' W 003°11'1818.5
2014-Aug-20 13:33N 53°31' W 003°42'11 0.7
2014-Aug-19 23:09N 53°33' W 003°60'  
Track history (hours):
 
Tides and Currents Weather Stations Pressure Air Temp Water Temp Dewpoint Dewpoint Depression Visibility Wind Speed Wind Dir Waves Ship Positions

Norbank

Operator: P & O Ferries

Last reported at 2014-Aug-29 23:05 UTC. Time now 2014-Aug-30 12:34 UTC.
Position N 53°33' W 003°60'.

Length 167 m; draft 5.8 m.

Type: Ship (hazmat cat A). MMSI: 246213000.

Date/timePositionNaut miles runAvg speedWind from/ knotsBaromVisibWave heightAir tempDewpointWater temp
2014-Aug-29 23:05N 53°33' W 003°60'916.9
2014-Aug-29 22:33N 53°33' W 003°45'1716.9
2014-Aug-29 21:33N 53°32' W 003°17'10 1.9
2014-Aug-29 16:18N 53°27' W 003°01'8 4.4
2014-Aug-29 14:33N 53°31' W 003°12'1818.0
2014-Aug-29 13:33N 53°31' W 003°43'1716.8
2014-Aug-29 12:33N 53°35' W 004°10'6 0.5
2014-Aug-28 23:08N 53°34' W 003°60'1017.2
2014-Aug-28 22:33N 53°33' W 003°43'1717.2
2014-Aug-28 21:33N 53°31' W 003°14'9 5.9
2014-Aug-28 20:04N 53°27' W 003°01'0 0.0
2014-Aug-28 19:31N 53°27' W 003°01'8 1.6
2014-Aug-28 14:33N 53°31' W 003°12'1616.5
2014-Aug-28 13:34N 53°31' W 003°40'1616.3
2014-Aug-28 12:34N 53°34' W 004°07'4 0.3
2014-Aug-27 23:29N 53°34' W 004°01'1718.2
2014-Aug-27 22:33N 53°33' W 003°33'12 1.5
2014-Aug-27 14:33N 53°31' W 003°13'1717.4
2014-Aug-27 13:33N 53°32' W 003°43'1817.9
2014-Aug-27 12:33N 53°35' W 004°12'16 1.1
2014-Aug-26 22:33N 53°33' W 003°46'1818.0
2014-Aug-26 21:33N 53°32' W 003°16'10 1.5
2014-Aug-26 15:10N 53°27' W 003°01'712.2
2014-Aug-26 14:34N 53°32' W 003°11'1817.6
2014-Aug-26 13:33N 53°31' W 003°40'1818.5
2014-Aug-26 12:34N 53°35' W 004°11'11 0.8
2014-Aug-25 22:32N 53°33' W 003°53'1515.7
2014-Aug-25 21:33N 53°33' W 003°27'1715.2
2014-Aug-25 20:27N 53°27' W 003°01'1 0.6
2014-Aug-25 19:24N 53°27' W 003°01'0 0.0
2014-Aug-25 18:29N 53°27' W 003°01'0 0.0
2014-Aug-25 17:05N 53°27' W 003°01'0 0.0
2014-Aug-25 16:28N 53°27' W 003°01'0 0.0
2014-Aug-25 14:22N 53°27' W 003°01'0 0.0
2014-Aug-25 13:09N 53°27' W 003°01'0 0.0
2014-Aug-25 12:27N 53°27' W 003°01'0 0.0
2014-Aug-25 11:14N 53°27' W 003°01'0 0.0
2014-Aug-25 10:32N 53°27' W 003°01'0 0.0
2014-Aug-25 07:31N 53°27' W 003°01'0 0.0
2014-Aug-25 06:30N 53°27' W 003°01'2 0.8
2014-Aug-25 04:30N 53°28' W 003°03'1112.1
2014-Aug-25 03:33N 53°31' W 003°22'1514.8
2014-Aug-25 02:33N 53°32' W 003°47'4 0.2
2014-Aug-23 23:33N 53°33' W 003°54'1716.8
2014-Aug-23 22:33N 53°32' W 003°26'1513.7
2014-Aug-23 21:27N 53°27' W 003°02'31 1.4
2014-Aug-22 23:31N 53°34' W 003°53'1919.6
2014-Aug-22 22:34N 53°32' W 003°21'8 1.0
2014-Aug-22 14:28N 53°31' W 003°07'1617.1
2014-Aug-22 13:33N 53°31' W 003°33'1818.1
2014-Aug-22 12:33N 53°34' W 004°03'10 0.7
2014-Aug-21 22:33N 53°33' W 003°47'1616.1
2014-Aug-21 21:33N 53°32' W 003°20'8 1.1
2014-Aug-21 14:27N 53°31' W 003°07'1415.8
2014-Aug-21 13:34N 53°31' W 003°31'1615.9
2014-Aug-21 12:34N 53°34' W 003°57'10 0.7
2014-Aug-20 22:33N 53°33' W 003°41'1919.0
2014-Aug-20 21:33N 53°32' W 003°09'6 5.1
2014-Aug-20 20:17N 53°27' W 003°01'0 0.1
2014-Aug-20 18:26N 53°27' W 003°01'7 1.9
2014-Aug-20 14:33N 53°32' W 003°11'1818.5
2014-Aug-20 13:33N 53°31' W 003°42'11 0.7
2014-Aug-19 23:09N 53°33' W 003°60'  

Dump ship's entire track history